sensor_id;sensor_type;location;lat;lon;timestamp;pressure;altitude;pressure_sealevel;temperature;humidity
76352;BME280;65179;47.786;19.138;2023-08-01T00:01:19;99745.50;;;19.59;67.05
76352;BME280;65179;47.786;19.138;2023-08-01T00:03:45;99739.12;;;19.63;66.96
76352;BME280;65179;47.786;19.138;2023-08-01T00:06:10;99739.41;;;19.62;67.13
76352;BME280;65179;47.786;19.138;2023-08-01T00:08:35;99738.19;;;19.49;67.47
76352;BME280;65179;47.786;19.138;2023-08-01T00:11:01;99741.84;;;19.16;69.00
76352;BME280;65179;47.786;19.138;2023-08-01T00:13:26;99748.94;;;19.22;69.11
76352;BME280;65179;47.786;19.138;2023-08-01T00:15:52;99753.28;;;19.28;68.37
76352;BME280;65179;47.786;19.138;2023-08-01T00:18:17;99742.25;;;19.28;68.52
76352;BME280;65179;47.786;19.138;2023-08-01T00:20:43;99751.38;;;19.24;69.04
76352;BME280;65179;47.786;19.138;2023-08-01T00:23:08;99750.81;;;19.27;69.01
76352;BME280;65179;47.786;19.138;2023-08-01T00:25:34;99759.34;;;19.25;69.08
76352;BME280;65179;47.786;19.138;2023-08-01T00:28:00;99752.69;;;19.31;68.90
76352;BME280;65179;47.786;19.138;2023-08-01T00:30:25;99754.16;;;19.24;69.08
76352;BME280;65179;47.786;19.138;2023-08-01T00:32:51;99752.09;;;19.11;69.73
76352;BME280;65179;47.786;19.138;2023-08-01T00:35:17;99753.47;;;19.08;69.99
76352;BME280;65179;47.786;19.138;2023-08-01T00:37:42;99753.56;;;19.03;69.44
76352;BME280;65179;47.786;19.138;2023-08-01T00:40:08;99747.91;;;18.89;69.85
76352;BME280;65179;47.786;19.138;2023-08-01T00:42:36;99733.81;;;18.96;69.92
76352;BME280;65179;47.786;19.138;2023-08-01T00:45:03;99741.34;;;18.85;70.44
76352;BME280;65179;47.786;19.138;2023-08-01T00:47:29;99732.59;;;19.07;69.67
76352;BME280;65179;47.786;19.138;2023-08-01T00:49:55;99737.44;;;18.91;70.03
76352;BME280;65179;47.786;19.138;2023-08-01T00:52:21;99734.59;;;18.73;70.40
76352;BME280;65179;47.786;19.138;2023-08-01T00:54:47;99725.22;;;18.74;70.62
76352;BME280;65179;47.786;19.138;2023-08-01T00:57:14;99721.94;;;18.72;70.64
76352;BME280;65179;47.786;19.138;2023-08-01T00:59:40;99718.47;;;18.90;69.85
76352;BME280;65179;47.786;19.138;2023-08-01T01:02:06;99714.22;;;18.74;70.51
76352;BME280;65179;47.786;19.138;2023-08-01T01:04:31;99720.03;;;18.67;70.84
76352;BME280;65179;47.786;19.138;2023-08-01T01:07:00;99715.41;;;18.63;71.22
76352;BME280;65179;47.786;19.138;2023-08-01T01:09:29;99705.44;;;18.72;70.76
76352;BME280;65179;47.786;19.138;2023-08-01T01:12:00;99705.13;;;18.73;70.81
76352;BME280;65179;47.786;19.138;2023-08-01T01:14:29;99698.81;;;18.73;70.89
76352;BME280;65179;47.786;19.138;2023-08-01T01:16:55;99701.31;;;18.69;70.82
76352;BME280;65179;47.786;19.138;2023-08-01T01:19:21;99695.53;;;18.37;71.89
76352;BME280;65179;47.786;19.138;2023-08-01T01:21:47;99703.53;;;18.34;71.74
76352;BME280;65179;47.786;19.138;2023-08-01T01:24:14;99696.37;;;18.38;71.74
76352;BME280;65179;47.786;19.138;2023-08-01T01:26:41;99695.84;;;18.36;71.56
76352;BME280;65179;47.786;19.138;2023-08-01T01:29:09;99691.31;;;18.16;72.28
76352;BME280;65179;47.786;19.138;2023-08-01T01:31:36;99696.47;;;18.28;71.98
76352;BME280;65179;47.786;19.138;2023-08-01T01:34:01;99699.16;;;18.33;71.62
76352;BME280;65179;47.786;19.138;2023-08-01T01:36:27;99695.09;;;18.25;72.03
76352;BME280;65179;47.786;19.138;2023-08-01T01:38:52;99690.91;;;18.33;72.17
76352;BME280;65179;47.786;19.138;2023-08-01T01:41:18;99687.06;;;18.34;71.90
76352;BME280;65179;47.786;19.138;2023-08-01T01:43:43;99693.91;;;18.36;71.89
76352;BME280;65179;47.786;19.138;2023-08-01T01:46:09;99690.34;;;18.36;71.72
76352;BME280;65179;47.786;19.138;2023-08-01T01:48:35;99697.41;;;18.47;71.24
76352;BME280;65179;47.786;19.138;2023-08-01T01:51:00;99687.47;;;18.51;71.06
76352;BME280;65179;47.786;19.138;2023-08-01T01:53:26;99674.66;;;18.36;71.38
76352;BME280;65179;47.786;19.138;2023-08-01T01:55:51;99677.78;;;18.25;71.58
76352;BME280;65179;47.786;19.138;2023-08-01T01:58:17;99675.03;;;18.25;71.44
76352;BME280;65179;47.786;19.138;2023-08-01T02:00:42;99681.75;;;18.08;72.01
76352;BME280;65179;47.786;19.138;2023-08-01T02:03:08;99678.41;;;18.16;nan
76352;BME280;65179;47.786;19.138;2023-08-01T02:05:36;99679.16;;;18.22;71.78
76352;BME280;65179;47.786;19.138;2023-08-01T02:08:01;99674.91;;;18.06;72.09
76352;BME280;65179;47.786;19.138;2023-08-01T02:10:27;99675.06;;;18.19;71.67
76352;BME280;65179;47.786;19.138;2023-08-01T02:12:52;99681.78;;;18.03;72.35
76352;BME280;65179;47.786;19.138;2023-08-01T02:15:17;99681.91;;;17.88;72.65
76352;BME280;65179;47.786;19.138;2023-08-01T02:17:43;99667.38;;;17.83;72.75
76352;BME280;65179;47.786;19.138;2023-08-01T02:20:08;99675.28;;;17.89;72.60
76352;BME280;65179;47.786;19.138;2023-08-01T02:22:34;99669.78;;;17.89;72.54
76352;BME280;65179;47.786;19.138;2023-08-01T02:24:59;99668.69;;;17.90;72.22
76352;BME280;65179;47.786;19.138;2023-08-01T02:27:25;99663.88;;;17.72;72.93
76352;BME280;65179;47.786;19.138;2023-08-01T02:29:50;99665.13;;;17.90;72.55
76352;BME280;65179;47.786;19.138;2023-08-01T02:32:16;99657.75;;;17.85;72.45
76352;BME280;65179;47.786;19.138;2023-08-01T02:34:41;99661.84;;;17.88;72.51
76352;BME280;65179;47.786;19.138;2023-08-01T02:37:07;99659.88;;;17.93;72.47
76352;BME280;65179;47.786;19.138;2023-08-01T02:39:32;99653.00;;;17.96;72.37
76352;BME280;65179;47.786;19.138;2023-08-01T02:41:58;99653.94;;;17.76;73.17
76352;BME280;65179;47.786;19.138;2023-08-01T02:44:23;99646.12;;;17.93;72.44
76352;BME280;65179;47.786;19.138;2023-08-01T02:46:48;99642.37;;;17.84;72.70
76352;BME280;65179;47.786;19.138;2023-08-01T02:49:14;99642.81;;;17.63;73.16
76352;BME280;65179;47.786;19.138;2023-08-01T02:51:39;99642.28;;;17.56;73.77
76352;BME280;65179;47.786;19.138;2023-08-01T02:54:04;99644.41;;;17.69;73.00
76352;BME280;65179;47.786;19.138;2023-08-01T02:56:30;99645.16;;;17.79;72.59
76352;BME280;65179;47.786;19.138;2023-08-01T02:58:55;99648.19;;;17.78;72.92
76352;BME280;65179;47.786;19.138;2023-08-01T03:01:22;99642.47;;;17.69;73.56
76352;BME280;65179;47.786;19.138;2023-08-01T03:03:47;99644.03;;;17.80;73.22
76352;BME280;65179;47.786;19.138;2023-08-01T03:06:13;99641.13;;;17.62;73.79
76352;BME280;65179;47.786;19.138;2023-08-01T03:08:39;99647.38;;;17.72;73.35
76352;BME280;65179;47.786;19.138;2023-08-01T03:11:05;99640.81;;;17.68;73.60
76352;BME280;65179;47.786;19.138;2023-08-01T03:13:30;99644.75;;;17.57;73.89
76352;BME280;65179;47.786;19.138;2023-08-01T03:15:56;99644.97;;;17.66;73.80
76352;BME280;65179;47.786;19.138;2023-08-01T03:18:21;99644.66;;;17.67;73.50
76352;BME280;65179;47.786;19.138;2023-08-01T03:20:47;99638.78;;;17.40;74.33
76352;BME280;65179;47.786;19.138;2023-08-01T03:23:12;99635.66;;;17.57;73.77
76352;BME280;65179;47.786;19.138;2023-08-01T03:25:37;99637.03;;;17.59;73.66
76352;BME280;65179;47.786;19.138;2023-08-01T03:28:04;99633.75;;;17.57;73.86
76352;BME280;65179;47.786;19.138;2023-08-01T03:30:31;99626.09;;;17.54;73.81
76352;BME280;65179;47.786;19.138;2023-08-01T03:32:57;99632.12;;;17.56;74.02
76352;BME280;65179;47.786;19.138;2023-08-01T03:35:23;99627.50;;;17.52;73.88
76352;BME280;65179;47.786;19.138;2023-08-01T03:37:49;99630.44;;;17.60;73.57
76352;BME280;65179;47.786;19.138;2023-08-01T03:40:14;99624.16;;;17.55;73.88
76352;BME280;65179;47.786;19.138;2023-08-01T03:42:40;99620.59;;;17.49;73.88
76352;BME280;65179;47.786;19.138;2023-08-01T03:45:06;99621.16;;;17.51;73.72
76352;BME280;65179;47.786;19.138;2023-08-01T03:47:32;99631.84;;;17.53;73.55
76352;BME280;65179;47.786;19.138;2023-08-01T03:49:57;99632.50;;;17.34;74.04
76352;BME280;65179;47.786;19.138;2023-08-01T03:52:23;99624.50;;;17.43;73.47
76352;BME280;65179;47.786;19.138;2023-08-01T03:54:49;99632.66;;;17.48;73.00
76352;BME280;65179;47.786;19.138;2023-08-01T03:57:14;99633.56;;;17.38;73.01
76352;BME280;65179;47.786;19.138;2023-08-01T03:59:40;99629.25;;;17.17;73.77
76352;BME280;65179;47.786;19.138;2023-08-01T04:02:05;99633.13;;;17.21;73.37
76352;BME280;65179;47.786;19.138;2023-08-01T04:04:31;99624.06;;;17.21;73.32
76352;BME280;65179;47.786;19.138;2023-08-01T04:06:57;99629.78;;;17.24;73.17
76352;BME280;65179;47.786;19.138;2023-08-01T04:09:22;99634.28;;;17.00;74.08
76352;BME280;65179;47.786;19.138;2023-08-01T04:11:48;99636.19;;;17.05;73.80
76352;BME280;65179;47.786;19.138;2023-08-01T04:14:13;99630.91;;;17.18;73.55
76352;BME280;65179;47.786;19.138;2023-08-01T04:16:39;99629.22;;;17.32;73.09
76352;BME280;65179;47.786;19.138;2023-08-01T04:19:04;99620.91;;;17.42;72.94
76352;BME280;65179;47.786;19.138;2023-08-01T04:21:30;99626.22;;;17.24;73.76
76352;BME280;65179;47.786;19.138;2023-08-01T04:23:55;99627.22;;;17.43;73.18
76352;BME280;65179;47.786;19.138;2023-08-01T04:26:20;99621.16;;;17.56;72.76
76352;BME280;65179;47.786;19.138;2023-08-01T04:28:46;99622.78;;;17.57;72.86
76352;BME280;65179;47.786;19.138;2023-08-01T04:31:12;99624.12;;;17.65;72.96
76352;BME280;65179;47.786;19.138;2023-08-01T04:33:38;99618.88;;;17.63;72.96
76352;BME280;65179;47.786;19.138;2023-08-01T04:36:03;99616.22;;;17.53;73.70
76352;BME280;65179;47.786;19.138;2023-08-01T04:38:29;99614.53;;;17.57;73.36
76352;BME280;65179;47.786;19.138;2023-08-01T04:40:54;99618.44;;;17.51;74.37
76352;BME280;65179;47.786;19.138;2023-08-01T04:43:20;99608.56;;;17.45;74.44
76352;BME280;65179;47.786;19.138;2023-08-01T04:45:45;99613.44;;;17.58;74.05
76352;BME280;65179;47.786;19.138;2023-08-01T04:48:10;99616.50;;;17.47;74.49
76352;BME280;65179;47.786;19.138;2023-08-01T04:50:36;99620.25;;;17.61;74.35
76352;BME280;65179;47.786;19.138;2023-08-01T04:53:01;99623.59;;;17.58;74.79
76352;BME280;65179;47.786;19.138;2023-08-01T04:55:27;99614.94;;;17.79;74.99
76352;BME280;65179;47.786;19.138;2023-08-01T04:57:52;99625.56;;;17.91;74.35
76352;BME280;65179;47.786;19.138;2023-08-01T05:00:17;99628.41;;;18.14;72.81
76352;BME280;65179;47.786;19.138;2023-08-01T05:02:43;99622.69;;;18.35;72.63
76352;BME280;65179;47.786;19.138;2023-08-01T05:05:08;99617.03;;;18.55;71.21
76352;BME280;65179;47.786;19.138;2023-08-01T05:07:34;99614.13;;;18.70;70.68
76352;BME280;65179;47.786;19.138;2023-08-01T05:09:59;99615.66;;;18.81;70.07
76352;BME280;65179;47.786;19.138;2023-08-01T05:12:24;99614.47;;;18.87;69.30
76352;BME280;65179;47.786;19.138;2023-08-01T05:14:50;99615.31;;;18.87;68.34
76352;BME280;65179;47.786;19.138;2023-08-01T05:17:15;99614.47;;;18.87;68.29
76352;BME280;65179;47.786;19.138;2023-08-01T05:19:41;99605.91;;;18.88;67.99
76352;BME280;65179;47.786;19.138;2023-08-01T05:22:06;99602.38;;;18.88;67.92
76352;BME280;65179;47.786;19.138;2023-08-01T05:24:31;99604.00;;;18.89;67.63
76352;BME280;65179;47.786;19.138;2023-08-01T05:26:57;99605.03;;;18.93;67.83
76352;BME280;65179;47.786;19.138;2023-08-01T05:29:22;99599.63;;;18.88;67.40
76352;BME280;65179;47.786;19.138;2023-08-01T05:31:48;99607.44;;;19.00;67.08
76352;BME280;65179;47.786;19.138;2023-08-01T05:34:13;99606.50;;;19.09;67.23
76352;BME280;65179;47.786;19.138;2023-08-01T05:36:39;99614.09;;;19.17;66.67
76352;BME280;65179;47.786;19.138;2023-08-01T05:39:04;99611.87;;;19.19;66.77
76352;BME280;65179;47.786;19.138;2023-08-01T05:41:30;99611.75;;;19.29;66.44
76352;BME280;65179;47.786;19.138;2023-08-01T05:43:56;99611.47;;;19.49;66.08
76352;BME280;65179;47.786;19.138;2023-08-01T05:46:21;99616.62;;;19.56;65.82
76352;BME280;65179;47.786;19.138;2023-08-01T05:48:47;99621.19;;;19.65;65.77
76352;BME280;65179;47.786;19.138;2023-08-01T05:51:12;99610.69;;;19.67;65.40
76352;BME280;65179;47.786;19.138;2023-08-01T05:53:37;99612.22;;;19.74;65.47
76352;BME280;65179;47.786;19.138;2023-08-01T05:56:03;99606.22;;;19.53;65.37
76352;BME280;65179;47.786;19.138;2023-08-01T05:58:30;99611.25;;;19.64;65.64
76352;BME280;65179;47.786;19.138;2023-08-01T06:00:55;99610.44;;;19.83;64.82
76352;BME280;65179;47.786;19.138;2023-08-01T06:03:21;99605.50;;;19.98;64.83
76352;BME280;65179;47.786;19.138;2023-08-01T06:05:46;99608.09;;;20.08;64.67
76352;BME280;65179;47.786;19.138;2023-08-01T06:08:12;99603.31;;;20.14;64.94
76352;BME280;65179;47.786;19.138;2023-08-01T06:10:38;99608.72;;;20.19;64.70
76352;BME280;65179;47.786;19.138;2023-08-01T06:13:03;99608.62;;;20.29;64.30
76352;BME280;65179;47.786;19.138;2023-08-01T06:15:29;99609.44;;;20.43;64.48
76352;BME280;65179;47.786;19.138;2023-08-01T06:17:54;99615.31;;;20.23;64.54
76352;BME280;65179;47.786;19.138;2023-08-01T06:20:20;99611.38;;;20.29;64.19
76352;BME280;65179;47.786;19.138;2023-08-01T06:22:45;99616.31;;;20.46;63.88
76352;BME280;65179;47.786;19.138;2023-08-01T06:25:11;99617.91;;;20.33;64.27
76352;BME280;65179;47.786;19.138;2023-08-01T06:27:37;99610.28;;;20.44;64.21
76352;BME280;65179;47.786;19.138;2023-08-01T06:30:03;99607.63;;;20.52;64.50
76352;BME280;65179;47.786;19.138;2023-08-01T06:32:28;99608.03;;;20.46;65.53
76352;BME280;65179;47.786;19.138;2023-08-01T06:34:54;99610.53;;;20.74;64.62
76352;BME280;65179;47.786;19.138;2023-08-01T06:37:19;99607.66;;;20.93;64.52
76352;BME280;65179;47.786;19.138;2023-08-01T06:39:45;99603.69;;;21.12;63.73
76352;BME280;65179;47.786;19.138;2023-08-01T06:42:10;99601.53;;;21.23;63.43
76352;BME280;65179;47.786;19.138;2023-08-01T06:44:36;99605.94;;;21.24;63.72
76352;BME280;65179;47.786;19.138;2023-08-01T06:47:02;99603.56;;;21.31;63.36
76352;BME280;65179;47.786;19.138;2023-08-01T06:49:27;99600.69;;;21.36;63.67
76352;BME280;65179;47.786;19.138;2023-08-01T06:51:53;99598.94;;;21.40;63.91
76352;BME280;65179;47.786;19.138;2023-08-01T06:54:18;99596.72;;;21.64;64.06
76352;BME280;65179;47.786;19.138;2023-08-01T06:56:43;99594.16;;;21.68;62.78
76352;BME280;65179;47.786;19.138;2023-08-01T06:59:13;99595.34;;;21.89;63.02
76352;BME280;65179;47.786;19.138;2023-08-01T07:01:40;99586.41;;;21.92;62.83
76352;BME280;65179;47.786;19.138;2023-08-01T07:04:09;99587.78;;;22.03;62.32
76352;BME280;65179;47.786;19.138;2023-08-01T07:06:34;99585.62;;;22.22;62.13
76352;BME280;65179;47.786;19.138;2023-08-01T07:08:59;99583.75;;;22.31;60.94
76352;BME280;65179;47.786;19.138;2023-08-01T07:11:25;99573.47;;;22.54;60.64
76352;BME280;65179;47.786;19.138;2023-08-01T07:13:50;99586.50;;;22.31;61.13
76352;BME280;65179;47.786;19.138;2023-08-01T07:16:15;99582.56;;;22.54;60.36
76352;BME280;65179;47.786;19.138;2023-08-01T07:18:41;99577.66;;;22.74;60.73
76352;BME280;65179;47.786;19.138;2023-08-01T07:21:06;99570.03;;;22.88;60.33
76352;BME280;65179;47.786;19.138;2023-08-01T07:23:34;99568.38;;;22.70;60.20
76352;BME280;65179;47.786;19.138;2023-08-01T07:26:00;99565.44;;;22.75;59.83
76352;BME280;65179;47.786;19.138;2023-08-01T07:28:25;99575.00;;;23.08;60.06
76352;BME280;65179;47.786;19.138;2023-08-01T07:31:05;99573.87;;;23.26;59.61
76352;BME280;65179;47.786;19.138;2023-08-01T07:33:31;99568.03;;;23.27;59.21
76352;BME280;65179;47.786;19.138;2023-08-01T07:35:57;99571.19;;;23.52;59.21
76352;BME280;65179;47.786;19.138;2023-08-01T07:38:23;99569.22;;;23.69;58.60
76352;BME280;65179;47.786;19.138;2023-08-01T07:40:51;99561.22;;;23.85;58.59
76352;BME280;65179;47.786;19.138;2023-08-01T07:43:16;99567.94;;;24.09;58.18
76352;BME280;65179;47.786;19.138;2023-08-01T07:45:42;99561.41;;;24.05;57.48
76352;BME280;65179;47.786;19.138;2023-08-01T07:48:07;99555.50;;;23.98;56.77
76352;BME280;65179;47.786;19.138;2023-08-01T07:50:33;99558.63;;;24.14;57.90
76352;BME280;65179;47.786;19.138;2023-08-01T07:52:58;99548.25;;;24.49;58.21
76352;BME280;65179;47.786;19.138;2023-08-01T07:55:23;99543.66;;;24.53;57.52
76352;BME280;65179;47.786;19.138;2023-08-01T07:57:49;99544.22;;;24.67;56.81
76352;BME280;65179;47.786;19.138;2023-08-01T08:00:15;99539.44;;;24.47;55.02
76352;BME280;65179;47.786;19.138;2023-08-01T08:02:42;99551.56;;;24.34;55.69
76352;BME280;65179;47.786;19.138;2023-08-01T08:05:08;99539.53;;;24.59;54.92
76352;BME280;65179;47.786;19.138;2023-08-01T08:07:34;99546.09;;;24.54;54.93
76352;BME280;65179;47.786;19.138;2023-08-01T08:09:59;99536.34;;;24.40;54.84
76352;BME280;65179;47.786;19.138;2023-08-01T08:12:25;99541.41;;;24.38;54.17
76352;BME280;65179;47.786;19.138;2023-08-01T08:14:50;99525.47;;;24.64;54.16
76352;BME280;65179;47.786;19.138;2023-08-01T08:17:16;99524.25;;;24.82;53.83
76352;BME280;65179;47.786;19.138;2023-08-01T08:19:41;99524.31;;;24.65;54.01
76352;BME280;65179;47.786;19.138;2023-08-01T08:22:07;99525.34;;;24.52;54.68
76352;BME280;65179;47.786;19.138;2023-08-01T08:24:32;99521.44;;;24.53;54.03
76352;BME280;65179;47.786;19.138;2023-08-01T08:26:58;99526.78;;;24.75;54.82
76352;BME280;65179;47.786;19.138;2023-08-01T08:29:23;99516.50;;;24.96;53.58
76352;BME280;65179;47.786;19.138;2023-08-01T08:31:49;99523.25;;;25.16;53.06
76352;BME280;65179;47.786;19.138;2023-08-01T08:34:15;99515.81;;;25.28;53.68
76352;BME280;65179;47.786;19.138;2023-08-01T08:36:40;99526.47;;;25.47;53.13
76352;BME280;65179;47.786;19.138;2023-08-01T08:39:06;99514.72;;;25.41;52.75
76352;BME280;65179;47.786;19.138;2023-08-01T08:41:38;99519.75;;;25.69;53.12
76352;BME280;65179;47.786;19.138;2023-08-01T08:44:07;99512.41;;;25.85;52.49
76352;BME280;65179;47.786;19.138;2023-08-01T08:46:42;99510.66;;;25.80;52.82
76352;BME280;65179;47.786;19.138;2023-08-01T08:49:08;99519.06;;;25.72;52.56
76352;BME280;65179;47.786;19.138;2023-08-01T08:51:36;99505.84;;;26.01;51.50
76352;BME280;65179;47.786;19.138;2023-08-01T08:54:01;99501.81;;;26.44;50.90
76352;BME280;65179;47.786;19.138;2023-08-01T08:56:28;99516.88;;;26.43;50.27
76352;BME280;65179;47.786;19.138;2023-08-01T08:58:53;99512.16;;;26.67;49.84
76352;BME280;65179;47.786;19.138;2023-08-01T09:01:19;99488.69;;;26.56;49.12
76352;BME280;65179;47.786;19.138;2023-08-01T09:03:45;99495.72;;;26.74;49.69
76352;BME280;65179;47.786;19.138;2023-08-01T09:06:14;99472.72;;;26.77;49.29
76352;BME280;65179;47.786;19.138;2023-08-01T09:08:47;99473.50;;;26.90;48.79
76352;BME280;65179;47.786;19.138;2023-08-01T09:11:15;99478.25;;;27.01;48.62
76352;BME280;65179;47.786;19.138;2023-08-01T09:13:40;99477.28;;;27.22;48.46
76352;BME280;65179;47.786;19.138;2023-08-01T09:16:06;99465.47;;;27.13;48.16
76352;BME280;65179;47.786;19.138;2023-08-01T09:18:33;99467.22;;;27.57;47.88
76352;BME280;65179;47.786;19.138;2023-08-01T09:20:59;99464.81;;;27.31;47.51
76352;BME280;65179;47.786;19.138;2023-08-01T09:23:27;99459.81;;;27.49;47.50
76352;BME280;65179;47.786;19.138;2023-08-01T09:25:53;99457.78;;;27.22;45.57
76352;BME280;65179;47.786;19.138;2023-08-01T09:28:20;99451.22;;;27.42;46.18
76352;BME280;65179;47.786;19.138;2023-08-01T09:30:53;99444.97;;;27.88;45.26
76352;BME280;65179;47.786;19.138;2023-08-01T09:33:23;99439.28;;;28.12;44.85
76352;BME280;65179;47.786;19.138;2023-08-01T09:35:51;99437.37;;;28.01;44.64
76352;BME280;65179;47.786;19.138;2023-08-01T09:38:17;99427.03;;;28.64;44.12
76352;BME280;65179;47.786;19.138;2023-08-01T09:40:44;99425.75;;;28.61;42.38
76352;BME280;65179;47.786;19.138;2023-08-01T09:43:13;99423.22;;;28.09;44.11
76352;BME280;65179;47.786;19.138;2023-08-01T09:45:59;99419.16;;;27.91;44.68
76352;BME280;65179;47.786;19.138;2023-08-01T09:48:26;99418.22;;;28.30;43.73
76352;BME280;65179;47.786;19.138;2023-08-01T09:50:52;99420.38;;;28.21;43.66
76352;BME280;65179;47.786;19.138;2023-08-01T09:53:18;99418.50;;;27.82;44.28
76352;BME280;65179;47.786;19.138;2023-08-01T09:55:46;99426.34;;;27.49;44.38
76352;BME280;65179;47.786;19.138;2023-08-01T09:58:13;99416.59;;;27.43;44.21
76352;BME280;65179;47.786;19.138;2023-08-01T10:00:41;99417.03;;;27.57;45.12
76352;BME280;65179;47.786;19.138;2023-08-01T10:03:09;99405.19;;;27.91;44.26
76352;BME280;65179;47.786;19.138;2023-08-01T10:05:35;99410.12;;;27.27;44.67
76352;BME280;65179;47.786;19.138;2023-08-01T10:08:02;99395.84;;;27.56;44.35
76352;BME280;65179;47.786;19.138;2023-08-01T10:10:28;99403.09;;;27.72;43.88
76352;BME280;65179;47.786;19.138;2023-08-01T10:12:56;99393.97;;;28.03;42.97
76352;BME280;65179;47.786;19.138;2023-08-01T10:15:24;99391.37;;;28.76;41.20
76352;BME280;65179;47.786;19.138;2023-08-01T10:17:49;99387.34;;;28.74;40.44
76352;BME280;65179;47.786;19.138;2023-08-01T10:20:15;99386.50;;;29.08;40.94
76352;BME280;65179;47.786;19.138;2023-08-01T10:22:41;99385.91;;;27.86;41.74
76352;BME280;65179;47.786;19.138;2023-08-01T10:25:09;99377.75;;;28.24;40.88
76352;BME280;65179;47.786;19.138;2023-08-01T10:27:36;99382.94;;;28.73;40.46
76352;BME280;65179;47.786;19.138;2023-08-01T10:30:03;99376.78;;;28.32;39.51
76352;BME280;65179;47.786;19.138;2023-08-01T10:32:36;99371.97;;;28.33;40.62
76352;BME280;65179;47.786;19.138;2023-08-01T10:35:02;99360.09;;;28.36;41.13
76352;BME280;65179;47.786;19.138;2023-08-01T10:37:39;99376.06;;;28.04;41.22
76352;BME280;65179;47.786;19.138;2023-08-01T10:40:08;99365.41;;;28.25;41.21
76352;BME280;65179;47.786;19.138;2023-08-01T10:42:38;99367.50;;;28.79;39.64
76352;BME280;65179;47.786;19.138;2023-08-01T10:45:04;99369.69;;;29.23;39.40
76352;BME280;65179;47.786;19.138;2023-08-01T10:47:29;99364.44;;;29.41;39.14
76352;BME280;65179;47.786;19.138;2023-08-01T10:49:56;99363.72;;;29.44;38.12
76352;BME280;65179;47.786;19.138;2023-08-01T10:52:23;99363.22;;;29.39;37.42
76352;BME280;65179;47.786;19.138;2023-08-01T10:55:01;99350.28;;;28.96;37.70
76352;BME280;65179;47.786;19.138;2023-08-01T10:57:30;99339.66;;;29.20;38.16
76352;BME280;65179;47.786;19.138;2023-08-01T10:59:57;99353.28;;;29.22;36.56
76352;BME280;65179;47.786;19.138;2023-08-01T11:02:24;99348.97;;;29.09;37.44
76352;BME280;65179;47.786;19.138;2023-08-01T11:04:58;99349.41;;;28.73;37.88
76352;BME280;65179;47.786;19.138;2023-08-01T11:07:23;99343.94;;;28.61;37.63
76352;BME280;65179;47.786;19.138;2023-08-01T11:09:49;99328.94;;;28.69;38.14
76352;BME280;65179;47.786;19.138;2023-08-01T11:12:14;99336.47;;;28.84;38.47
76352;BME280;65179;47.786;19.138;2023-08-01T11:14:40;99332.13;;;28.51;39.22
76352;BME280;65179;47.786;19.138;2023-08-01T11:17:06;99334.81;;;28.48;39.96
76352;BME280;65179;47.786;19.138;2023-08-01T11:19:32;99330.56;;;28.70;39.81
76352;BME280;65179;47.786;19.138;2023-08-01T11:21:57;99318.41;;;28.62;39.21
76352;BME280;65179;47.786;19.138;2023-08-01T11:24:25;99316.50;;;28.66;38.41
76352;BME280;65179;47.786;19.138;2023-08-01T11:26:53;99321.41;;;28.53;38.86
76352;BME280;65179;47.786;19.138;2023-08-01T11:29:19;99321.59;;;28.61;38.97
76352;BME280;65179;47.786;19.138;2023-08-01T11:31:55;99313.75;;;28.00;39.57
76352;BME280;65179;47.786;19.138;2023-08-01T11:34:22;99310.97;;;28.00;38.73
76352;BME280;65179;47.786;19.138;2023-08-01T11:36:48;99302.28;;;28.05;39.36
76352;BME280;65179;47.786;19.138;2023-08-01T11:39:15;99304.22;;;28.36;39.11
76352;BME280;65179;47.786;19.138;2023-08-01T11:41:41;99294.72;;;28.56;38.91
76352;BME280;65179;47.786;19.138;2023-08-01T11:44:07;99290.47;;;28.62;39.08
76352;BME280;65179;47.786;19.138;2023-08-01T11:46:34;99281.00;;;28.32;39.21
76352;BME280;65179;47.786;19.138;2023-08-01T11:49:03;99283.00;;;28.50;39.60
76352;BME280;65179;47.786;19.138;2023-08-01T11:51:29;99274.34;;;28.56;39.32
76352;BME280;65179;47.786;19.138;2023-08-01T11:54:02;99268.06;;;28.59;38.75
76352;BME280;65179;47.786;19.138;2023-08-01T11:56:28;99265.62;;;28.76;38.69
76352;BME280;65179;47.786;19.138;2023-08-01T11:58:54;99266.75;;;28.91;39.47
76352;BME280;65179;47.786;19.138;2023-08-01T12:01:20;99253.06;;;28.86;37.91
76352;BME280;65179;47.786;19.138;2023-08-01T12:03:47;99259.53;;;28.90;39.11
76352;BME280;65179;47.786;19.138;2023-08-01T12:06:13;99246.97;;;28.80;37.63
76352;BME280;65179;47.786;19.138;2023-08-01T12:08:41;99243.88;;;28.50;38.09
76352;BME280;65179;47.786;19.138;2023-08-01T12:11:26;99240.03;;;28.74;38.83
76352;BME280;65179;47.786;19.138;2023-08-01T12:14:08;99230.53;;;29.17;38.06
76352;BME280;65179;47.786;19.138;2023-08-01T12:16:38;99226.47;;;29.14;37.16
76352;BME280;65179;47.786;19.138;2023-08-01T12:19:04;99215.53;;;29.06;38.02
76352;BME280;65179;47.786;19.138;2023-08-01T12:21:31;99212.16;;;29.39;37.97
76352;BME280;65179;47.786;19.138;2023-08-01T12:23:57;99200.16;;;29.38;37.74
76352;BME280;65179;47.786;19.138;2023-08-01T12:26:23;99197.34;;;29.38;37.17
76352;BME280;65179;47.786;19.138;2023-08-01T12:28:49;99201.50;;;29.25;37.37
76352;BME280;65179;47.786;19.138;2023-08-01T12:31:18;99214.47;;;29.14;37.65
76352;BME280;65179;47.786;19.138;2023-08-01T12:33:46;99200.31;;;29.26;37.52
76352;BME280;65179;47.786;19.138;2023-08-01T12:36:14;99187.91;;;29.23;37.93
76352;BME280;65179;47.786;19.138;2023-08-01T12:38:40;99187.31;;;29.14;37.05
76352;BME280;65179;47.786;19.138;2023-08-01T12:41:07;99184.87;;;29.32;37.56
76352;BME280;65179;47.786;19.138;2023-08-01T12:43:33;99187.41;;;28.99;36.83
76352;BME280;65179;47.786;19.138;2023-08-01T12:45:58;99192.72;;;29.04;37.94